Time;durP1;ratioP1;P1;durP2;ratioP2;P2;SDS_P1;SDS_P2;PMS_P1;PMS_P2;Temp;Humidity;BMP_temperature;BMP_pressure;BME280_temperature;BME280_humidity;BME280_pressure;Samples;Min_cycle;Max_cycle;Signal;HPM_P1;HPM_P2
2022/07/05 00:01:57;;;;;;;3.03;0.90;;;17.40;71.00;;;;;;5037961;28;20021;-78
2022/07/05 00:04:23;;;;;;;2.95;0.85;;;17.70;71.40;;;;;;5047908;28;20039;-77
2022/07/05 00:09:34;;;;;;;2.15;0.88;;;17.30;69.40;;;;;;5033290;28;20507;-77
2022/07/05 00:11:59;;;;;;;2.95;0.80;;;16.90;71.30;;;;;;5035377;28;20025;-78
2022/07/05 00:14:25;;;;;;;3.35;1.00;;;;;;;;;;5036905;28;20029;-78
2022/07/05 00:16:51;;;;;;;4.63;0.98;;;17.30;68.60;;;;;;5048078;28;20021;-77
2022/07/05 00:19:17;;;;;;;7.57;1.20;;;16.30;72.10;;;;;;5037656;28;20546;-78
2022/07/05 00:21:42;;;;;;;3.58;0.80;;;16.50;72.60;;;;;;5042320;28;20032;-77
2022/07/05 00:24:08;;;;;;;4.55;0.90;;;16.30;56.80;;;;;;5036047;28;20497;-77
2022/07/05 00:26:33;;;;;;;2.03;0.82;;;15.00;68.80;;;;;;5033960;28;20488;-77
2022/07/05 00:28:59;;;;;;;3.58;0.90;;;;;;;;;;5042119;28;20478;-77
2022/07/05 00:31:25;;;;;;;3.42;0.80;;;16.20;67.20;;;;;;5038165;28;20029;-77
2022/07/05 00:33:51;;;;;;;2.38;0.77;;;15.60;67.40;;;;;;5033327;28;20536;-78
2022/07/05 00:36:17;;;;;;;3.58;0.80;;;;;;;;;;5036553;28;20029;-78
2022/07/05 00:38:42;;;;;;;2.78;0.80;;;17.50;66.10;;;;;;5036251;28;20488;-79
2022/07/05 00:41:08;;;;;;;2.25;0.90;;;16.00;56.10;;;;;;5043714;28;20057;-77
2022/07/05 00:43:34;;;;;;;4.53;1.45;;;15.80;67.40;;;;;;5040531;28;20059;-77
2022/07/05 00:45:59;;;;;;;2.53;0.95;;;16.00;57.20;;;;;;5042471;28;20507;-77
2022/07/05 00:48:25;;;;;;;2.20;0.93;;;16.80;69.20;;;;;;5036490;28;20397;-78
2022/07/05 00:50:52;;;;;;;3.42;0.98;;;16.20;69.60;;;;;;5034252;28;20163;-77
2022/07/05 00:53:18;;;;;;;2.92;1.00;;;15.90;68.30;;;;;;5044143;28;20507;-78
2022/07/05 00:55:45;;;;;;;3.20;1.20;;;15.80;63.00;;;;;;5039794;28;20041;-77
2022/07/05 00:58:11;;;;;;;2.88;1.00;;;15.90;57.80;;;;;;5038672;28;20547;-77
2022/07/05 01:00:37;;;;;;;3.72;0.90;;;15.90;57.90;;;;;;5039730;28;20025;-77
2022/07/05 01:03:04;;;;;;;2.13;0.93;;;15.70;70.40;;;;;;5040691;28;20037;-78
2022/07/05 01:05:31;;;;;;;2.88;0.93;;;16.40;70.60;;;;;;5034075;28;20037;-77
2022/07/05 01:07:59;;;;;;;4.57;1.02;;;16.60;71.80;;;;;;5045498;28;20107;-78
2022/07/05 01:10:26;;;;;;;2.88;1.00;;;15.90;70.40;;;;;;5031470;28;20512;-78
2022/07/05 01:12:52;;;;;;;3.72;0.90;;;15.50;70.00;;;;;;5043533;28;20024;-77
2022/07/05 01:15:21;;;;;;;2.40;0.93;;;16.90;67.50;;;;;;5038540;28;20043;-78
2022/07/05 01:17:47;;;;;;;3.38;0.95;;;15.60;58.60;;;;;;5032814;28;20040;-78
2022/07/05 01:20:14;;;;;;;3.17;1.00;;;15.50;58.70;;;;;;5037737;28;20030;-77
2022/07/05 01:23:08;;;;;;;3.58;0.90;;;16.90;69.60;;;;;;5032774;28;20025;-77
2022/07/05 01:25:35;;;;;;;2.08;0.90;;;15.90;70.00;;;;;;5031839;28;20583;-78
2022/07/05 01:28:03;;;;;;;2.60;0.98;;;16.00;68.60;;;;;;5038853;28;20060;-78
2022/07/05 01:30:32;;;;;;;2.97;0.90;;;15.10;72.80;;;;;;5035297;28;20043;-78
2022/07/05 01:32:58;;;;;;;3.50;1.00;;;15.40;71.90;;;;;;5037175;28;20040;-78
2022/07/05 01:35:23;;;;;;;2.88;0.95;;;13.50;69.00;;;;;;5036511;28;20036;-77
2022/07/05 01:37:51;;;;;;;3.88;1.10;;;15.50;70.30;;;;;;5041728;28;20025;-78
2022/07/05 01:40:18;;;;;;;3.25;1.08;;;14.30;70.40;;;;;;5036709;28;20029;-77
2022/07/05 01:42:44;;;;;;;3.65;1.15;;;14.90;72.00;;;;;;5043103;28;20032;-77
2022/07/05 01:45:10;;;;;;;2.72;1.10;;;15.60;72.00;;;;;;5033426;28;20034;-77
2022/07/05 01:47:45;;;;;;;3.17;1.00;;;14.80;72.90;;;;;;5038097;28;20020;-77
2022/07/05 01:50:14;;;;;;;4.32;1.15;;;15.10;72.10;;;;;;5036762;28;20034;-78
2022/07/05 01:52:43;;;;;;;2.30;1.00;;;15.90;72.80;;;;;;5041553;28;20025;-78
2022/07/05 01:55:09;;;;;;;4.28;1.10;;;12.70;71.60;;;;;;5035696;28;20080;-77
2022/07/05 01:57:35;;;;;;;4.38;1.10;;;16.20;72.30;;;;;;5037271;28;20025;-78
2022/07/05 02:00:00;;;;;;;2.00;1.00;;;14.90;73.60;;;;;;5039801;28;20444;-78
2022/07/05 02:02:26;;;;;;;2.95;1.08;;;15.40;73.90;;;;;;5031110;28;20022;-78
2022/07/05 02:04:52;;;;;;;4.05;1.00;;;;;;;;;;5031891;28;20581;-78
2022/07/05 02:07:18;;;;;;;2.58;1.00;;;15.30;75.20;;;;;;5036273;28;20025;-78
2022/07/05 02:09:43;;;;;;;3.03;1.25;;;15.40;72.10;;;;;;5037559;28;20396;-78
2022/07/05 02:12:09;;;;;;;3.38;1.13;;;15.20;71.20;;;;;;5037842;28;20100;-78
2022/07/05 02:14:35;;;;;;;3.67;1.10;;;16.20;76.40;;;;;;5039454;28;20037;-78
2022/07/05 02:17:01;;;;;;;2.50;1.05;;;15.60;64.10;;;;;;5037332;28;20022;-78
2022/07/05 02:19:27;;;;;;;3.50;1.08;;;15.10;74.90;;;;;;5034286;28;20384;-78
2022/07/05 02:21:53;;;;;;;3.53;1.15;;;16.10;70.10;;;;;;5031693;28;20563;-78
2022/07/05 02:24:20;;;;;;;3.85;1.10;;;13.70;69.40;;;;;;5032235;28;20045;-78
2022/07/05 02:26:46;;;;;;;4.95;1.10;;;15.40;68.10;;;;;;5032346;28;20081;-77
2022/07/05 02:29:11;;;;;;;4.95;1.35;;;14.80;60.20;;;;;;5043452;28;20119;-78
2022/07/05 02:31:37;;;;;;;2.45;1.05;;;16.00;69.10;;;;;;5037588;28;20157;-80
2022/07/05 02:34:03;;;;;;;2.75;1.35;;;14.50;69.20;;;;;;5035859;28;20474;-80
2022/07/05 02:36:29;;;;;;;3.80;1.10;;;15.60;71.50;;;;;;5043080;28;20547;-80
2022/07/05 02:38:54;;;;;;;2.05;0.90;;;14.70;60.10;;;;;;5045555;28;20116;-79
2022/07/05 02:41:20;;;;;;;4.82;1.20;;;14.70;59.70;;;;;;5042651;28;20022;-80
2022/07/05 02:43:46;;;;;;;4.03;1.10;;;16.10;70.10;;;;;;5042246;28;20026;-80
2022/07/05 02:46:11;;;;;;;2.33;1.00;;;13.50;69.40;;;;;;5039772;28;20057;-80
2022/07/05 02:48:38;;;;;;;4.50;1.13;;;14.60;59.50;;;;;;5031592;28;20032;-80
2022/07/05 02:51:04;;;;;;;2.58;1.00;;;14.50;69.00;;;;;;5039179;28;20037;-78
2022/07/05 02:53:30;;;;;;;2.22;1.10;;;14.50;59.60;;;;;;5034513;28;20876;-78
2022/07/05 02:55:56;;;;;;;3.78;1.20;;;16.30;70.70;;;;;;5074241;28;20095;-78
2022/07/05 02:58:23;;;;;;;3.05;1.30;;;;;;;;;;5036294;28;20059;-78
2022/07/05 03:00:49;;;;;;;4.90;1.35;;;14.20;59.40;;;;;;5037833;28;20160;-78
2022/07/05 03:03:16;;;;;;;4.53;1.40;;;14.00;70.70;;;;;;5045647;28;20032;-78
2022/07/05 03:05:42;;;;;;;2.22;1.15;;;14.40;59.80;;;;;;5046300;28;20491;-78
2022/07/05 03:08:08;;;;;;;2.70;1.20;;;;;;;;;;5046883;28;20361;-78
2022/07/05 03:10:35;;;;;;;3.17;1.30;;;13.90;70.80;;;;;;5046117;28;20112;-78
2022/07/05 03:13:02;;;;;;;4.70;1.50;;;14.20;72.40;;;;;;5038651;28;20499;-78
2022/07/05 03:15:27;;;;;;;3.10;1.20;;;12.60;71.10;;;;;;5045295;28;20434;-80
2022/07/05 03:17:53;;;;;;;2.70;1.30;;;14.30;61.00;;;;;;5045665;28;20504;-80
2022/07/05 03:20:19;;;;;;;2.95;1.30;;;14.30;61.00;;;;;;5050168;28;20087;-80
2022/07/05 03:22:45;;;;;;;3.65;1.33;;;14.20;61.30;;;;;;5038351;28;20025;-80
2022/07/05 03:25:10;;;;;;;4.20;1.13;;;14.20;61.50;;;;;;5050524;28;20029;-80
2022/07/05 03:27:36;;;;;;;2.83;1.20;;;14.50;70.70;;;;;;5041052;28;20027;-80
2022/07/05 03:30:04;;;;;;;2.90;1.17;;;14.20;61.20;;;;;;5036202;28;20045;-80
2022/07/05 03:32:29;;;;;;;2.80;1.10;;;13.90;70.60;;;;;;5046212;28;20127;-80
2022/07/05 03:34:55;;;;;;;3.25;1.17;;;14.10;61.50;;;;;;5045709;28;20065;-80
2022/07/05 03:37:21;;;;;;;4.10;1.52;;;12.90;71.00;;;;;;5033561;28;20029;-80
2022/07/05 03:39:47;;;;;;;5.05;2.13;;;14.20;71.00;;;;;;5044180;28;20029;-80
2022/07/05 03:42:13;;;;;;;2.83;1.30;;;;;;;;;;5039535;28;20025;-80
2022/07/05 03:44:39;;;;;;;2.30;1.15;;;14.30;72.30;;;;;;5044981;28;20059;-78
2022/07/05 03:47:04;;;;;;;2.33;1.15;;;13.60;72.40;;;;;;5033499;28;20492;-78
2022/07/05 03:49:30;;;;;;;2.72;1.40;;;14.30;73.70;;;;;;5031522;28;20025;-78
2022/07/05 03:51:55;;;;;;;2.83;1.27;;;14.00;72.80;;;;;;5033685;28;20021;-78
2022/07/05 03:54:21;;;;;;;2.90;1.20;;;14.90;74.90;;;;;;5039142;28;20142;-78
2022/07/05 03:56:47;;;;;;;4.35;1.23;;;11.60;66.00;;;;;;5041369;28;20056;-77
2022/07/05 03:59:13;;;;;;;4.25;1.20;;;13.50;74.00;;;;;;5035527;28;20025;-78
2022/07/05 04:01:38;;;;;;;3.60;1.20;;;13.10;71.60;;;;;;5041331;28;20025;-80
2022/07/05 04:04:04;;;;;;;2.92;1.20;;;12.30;72.90;;;;;;5036854;28;20041;-80
2022/07/05 04:06:29;;;;;;;3.42;1.40;;;13.70;73.70;;;;;;5032986;28;20405;-78
2022/07/05 04:08:55;;;;;;;3.20;1.13;;;11.90;72.60;;;;;;5040405;28;20047;-78
2022/07/05 04:11:21;;;;;;;2.67;1.27;;;13.90;63.00;;;;;;5039175;28;20123;-77
2022/07/05 04:13:46;;;;;;;3.83;1.95;;;13.90;63.40;;;;;;5046862;28;20013;-78
2022/07/05 04:16:13;;;;;;;3.42;1.30;;;;;;;;;;5035105;28;20404;-78
2022/07/05 04:18:38;;;;;;;3.70;1.40;;;14.10;74.80;;;;;;5037172;28;20022;-78
2022/07/05 04:21:05;;;;;;;4.18;1.40;;;14.80;75.40;;;;;;5039659;28;20859;-77
2022/07/05 04:23:31;;;;;;;5.18;1.73;;;14.00;64.00;;;;;;5037932;28;20143;-78
2022/07/05 04:25:57;;;;;;;3.25;1.40;;;14.00;64.10;;;;;;5036318;28;20028;-77
2022/07/05 04:28:22;;;;;;;2.70;1.40;;;13.90;74.60;;;;;;5041771;28;20044;-74
2022/07/05 04:30:48;;;;;;;3.90;1.35;;;14.00;64.30;;;;;;5042565;28;20087;-76
2022/07/05 04:33:14;;;;;;;4.55;1.48;;;14.10;76.00;;;;;;5037982;28;20055;-78
2022/07/05 04:35:39;;;;;;;4.00;1.45;;;14.00;64.70;;;;;;5044064;28;20025;-78
2022/07/05 04:38:05;;;;;;;2.95;1.33;;;13.60;76.40;;;;;;5041413;28;20473;-76
2022/07/05 04:40:31;;;;;;;3.88;1.50;;;12.00;75.20;;;;;;5043056;28;20030;-76
2022/07/05 04:42:57;;;;;;;5.45;1.63;;;13.90;78.00;;;;;;5040422;28;20032;-78
2022/07/05 04:45:23;;;;;;;4.60;1.65;;;15.00;78.70;;;;;;5038314;28;20041;-75
2022/07/05 04:47:48;;;;;;;3.75;1.42;;;14.00;77.20;;;;;;5037233;28;20109;-77
2022/07/05 04:50:14;;;;;;;4.35;1.50;;;14.20;69.10;;;;;;5042493;28;20065;-78
2022/07/05 04:52:40;;;;;;;3.65;1.70;;;13.50;77.70;;;;;;5046700;28;20034;-78
2022/07/05 04:55:06;;;;;;;3.60;1.60;;;14.10;77.30;;;;;;5038356;28;20103;-78
2022/07/05 04:57:42;;;;;;;5.82;1.70;;;13.50;77.70;;;;;;5042260;28;20036;-76
2022/07/05 05:00:13;;;;;;;5.25;1.90;;;14.30;77.90;;;;;;5044066;28;20029;-75
2022/07/05 05:02:39;;;;;;;5.18;1.83;;;14.10;77.70;;;;;;5034435;28;20428;-77
2022/07/05 05:05:07;;;;;;;4.28;1.90;;;14.30;66.50;;;;;;5042271;28;20063;-77
2022/07/05 05:07:32;;;;;;;6.68;2.10;;;15.50;78.40;;;;;;5030679;28;20034;-81
2022/07/05 05:09:59;;;;;;;4.55;1.90;;;15.40;78.30;;;;;;5025748;28;20127;-78
2022/07/05 05:12:25;;;;;;;6.13;1.80;;;;;;;;;;5026462;28;20060;-78
2022/07/05 05:14:51;;;;;;;3.90;1.75;;;15.20;78.90;;;;;;5025547;28;20021;-79
2022/07/05 05:17:17;;;;;;;6.40;2.38;;;14.10;79.10;;;;;;5040771;28;20021;-78
2022/07/05 05:19:44;;;;;;;4.47;1.83;;;14.30;79.60;;;;;;5038943;28;20108;-82
2022/07/05 05:22:10;;;;;;;3.85;1.80;;;;;;;;;;5026848;28;20524;-81
2022/07/05 05:24:35;;;;;;;6.82;1.80;;;15.10;80.00;;;;;;5041754;28;20036;-82
2022/07/05 05:27:01;;;;;;;8.57;2.20;;;15.10;79.80;;;;;;5026296;28;20055;-78
2022/07/05 05:29:27;;;;;;;4.70;1.80;;;13.50;79.00;;;;;;5033968;28;20029;-76
2022/07/05 05:31:53;;;;;;;4.93;1.90;;;14.30;78.80;;;;;;5030610;28;20961;-80
2022/07/05 05:34:19;;;;;;;4.13;1.90;;;15.10;79.10;;;;;;5040702;28;20068;-77
2022/07/05 05:36:45;;;;;;;5.20;1.83;;;15.00;67.80;;;;;;5042706;28;20033;-79
2022/07/05 05:39:11;;;;;;;6.07;2.10;;;15.90;79.90;;;;;;5036995;28;20116;-79
2022/07/05 05:41:36;;;;;;;3.80;1.92;;;14.70;79.60;;;;;;5036703;28;20025;-79
2022/07/05 05:44:02;;;;;;;4.75;2.05;;;15.40;79.00;;;;;;5038137;28;20108;-79
2022/07/05 05:46:28;;;;;;;6.20;2.30;;;14.50;78.90;;;;;;5031855;28;20037;-79
2022/07/05 05:48:54;;;;;;;10.80;4.53;;;15.30;78.60;;;;;;5048885;28;20033;-79
2022/07/05 05:51:19;;;;;;;13.85;6.75;;;15.80;79.50;;;;;;5041650;28;20186;-79
2022/07/05 05:53:45;;;;;;;5.57;2.78;;;15.70;79.10;;;;;;5042850;28;20033;-79
2022/07/05 05:56:12;;;;;;;5.65;2.50;;;16.10;79.50;;;;;;5044177;28;20492;-78
2022/07/05 05:58:37;;;;;;;6.88;2.63;;;16.80;79.20;;;;;;5039578;28;20476;-79
2022/07/05 06:01:03;;;;;;;4.93;2.60;;;16.00;78.80;;;;;;5030925;28;20112;-79
2022/07/05 06:03:29;;;;;;;6.30;2.53;;;16.10;78.90;;;;;;5038782;28;20041;-78
2022/07/05 06:05:55;;;;;;;7.40;2.67;;;16.00;78.70;;;;;;5038306;28;20128;-79
2022/07/05 06:08:21;;;;;;;8.73;2.72;;;15.40;78.90;;;;;;5031417;28;20050;-79
2022/07/05 06:10:47;;;;;;;8.48;2.70;;;16.30;78.00;;;;;;5046160;28;20108;-78
2022/07/05 06:13:14;;;;;;;8.75;3.00;;;16.30;79.40;;;;;;5033358;28;20119;-79
2022/07/05 06:15:43;;;;;;;6.82;3.00;;;14.80;79.00;;;;;;5033370;28;20045;-79
2022/07/05 06:18:10;;;;;;;12.27;3.20;;;16.50;67.30;;;;;;5033905;28;20018;-78
2022/07/05 06:20:37;;;;;;;10.80;3.30;;;17.00;77.90;;;;;;5041236;28;20033;-76
2022/07/05 06:23:05;;;;;;;7.82;2.90;;;16.70;67.70;;;;;;5030414;28;20025;-76
2022/07/05 06:25:32;;;;;;;6.47;3.00;;;16.90;67.40;;;;;;5044392;28;20049;-77
2022/07/05 06:28:04;;;;;;;8.63;3.35;;;17.00;67.10;;;;;;5046346;28;20042;-78
2022/07/05 06:30:31;;;;;;;6.55;3.10;;;18.00;77.00;;;;;;5038228;28;20036;-83
2022/07/05 06:32:58;;;;;;;8.10;3.33;;;17.30;66.30;;;;;;5039480;28;20045;-79
2022/07/05 06:35:24;;;;;;;5.50;2.90;;;17.70;65.10;;;;;;5044408;28;20029;-76
2022/07/05 06:37:55;;;;;;;7.70;3.08;;;17.70;65.90;;;;;;5039388;28;20509;-77
2022/07/05 06:40:32;;;;;;;6.47;2.63;;;18.00;76.10;;;;;;5046823;28;20025;-76
2022/07/05 06:43:00;;;;;;;14.35;6.22;;;18.40;75.70;;;;;;5044579;28;20116;-76
2022/07/05 06:45:26;;;;;;;6.93;2.97;;;18.70;75.50;;;;;;5047261;28;20029;-76
2022/07/05 06:48:01;;;;;;;5.03;2.40;;;17.50;75.30;;;;;;5038783;28;20046;-76
2022/07/05 06:50:29;;;;;;;9.68;2.70;;;18.40;66.20;;;;;;5044501;28;20068;-75
2022/07/05 06:52:55;;;;;;;7.68;2.60;;;17.80;76.00;;;;;;5038809;28;20464;-76
2022/07/05 06:55:22;;;;;;;7.65;2.35;;;18.50;67.10;;;;;;5043122;28;20150;-76
2022/07/05 06:57:49;;;;;;;9.60;3.03;;;18.70;66.60;;;;;;5043688;28;20057;-76
2022/07/05 07:00:15;;;;;;;7.88;2.70;;;19.20;77.10;;;;;;5046155;28;20056;-75
2022/07/05 07:02:41;;;;;;;9.00;2.80;;;18.70;76.10;;;;;;5041671;28;20109;-76
2022/07/05 07:05:08;;;;;;;4.45;2.50;;;18.80;67.10;;;;;;5046687;28;20841;-78
2022/07/05 07:10:18;;;;;;;10.80;2.60;;;19.50;73.50;;;;;;5046886;28;20055;-76
2022/07/05 07:12:44;;;;;;;5.03;2.22;;;19.60;74.10;;;;;;5048302;28;20019;-77
2022/07/05 07:15:10;;;;;;;9.43;3.92;;;19.10;73.90;;;;;;5044024;28;20450;-75
2022/07/05 07:17:36;;;;;;;7.07;2.58;;;20.90;72.80;;;;;;5041764;28;20037;-75
2022/07/05 07:20:02;;;;;;;6.80;2.30;;;19.90;64.10;;;;;;5042109;28;20534;-75
2022/07/05 07:22:28;;;;;;;5.05;2.08;;;20.90;70.00;;;;;;5042679;28;20079;-75
2022/07/05 07:24:54;;;;;;;7.10;2.25;;;20.60;61.80;;;;;;5032552;28;20037;-75
2022/07/05 07:27:19;;;;;;;5.78;2.00;;;20.70;66.90;;;;;;5044837;28;20070;-75
2022/07/05 07:29:45;;;;;;;7.57;1.90;;;21.70;59.00;;;;;;5045539;28;20033;-75
2022/07/05 07:32:11;;;;;;;5.60;1.73;;;23.40;52.20;;;;;;5042947;28;20067;-75
2022/07/05 07:34:37;;;;;;;6.13;1.30;;;23.10;52.70;;;;;;5044722;28;20037;-75
2022/07/05 07:37:04;;;;;;;5.05;1.30;;;22.70;53.90;;;;;;5042550;28;20021;-75
2022/07/05 07:39:33;;;;;;;5.10;1.30;;;22.40;55.20;;;;;;5043149;28;20041;-75
2022/07/05 07:41:59;;;;;;;4.45;1.20;;;22.30;55.70;;;;;;5038025;28;20030;-75
2022/07/05 07:44:25;;;;;;;5.32;1.13;;;22.30;54.80;;;;;;5043052;28;20051;-75
2022/07/05 07:46:51;;;;;;;5.43;1.17;;;22.10;55.30;;;;;;5040403;28;20033;-75
2022/07/05 07:49:17;;;;;;;2.42;0.70;;;22.00;54.70;;;;;;5045834;28;20025;-76
2022/07/05 07:51:43;;;;;;;2.30;0.80;;;23.00;58.50;;;;;;5035676;28;20052;-76
2022/07/05 07:54:09;;;;;;;3.88;1.00;;;22.20;50.70;;;;;;5034365;28;20022;-76
2022/07/05 07:56:35;;;;;;;2.85;0.70;;;23.60;57.60;;;;;;5042179;28;20037;-76
2022/07/05 07:59:00;;;;;;;3.38;0.80;;;22.40;50.50;;;;;;5032954;28;20434;-75
2022/07/05 08:01:26;;;;;;;3.33;0.95;;;22.60;48.80;;;;;;5039561;28;20477;-75
2022/07/05 08:03:52;;;;;;;3.67;0.80;;;22.70;48.80;;;;;;5046450;28;20037;-75
2022/07/05 08:06:20;;;;;;;2.22;0.70;;;22.90;48.60;;;;;;5038817;28;20033;-75
2022/07/05 08:08:47;;;;;;;3.03;0.88;;;23.00;48.60;;;;;;5041883;28;20036;-75
2022/07/05 08:11:13;;;;;;;3.08;0.80;;;21.60;50.10;;;;;;5037920;28;20467;-75
2022/07/05 08:13:40;;;;;;;3.15;0.90;;;22.20;48.50;;;;;;5039106;28;20025;-75
2022/07/05 08:16:07;;;;;;;2.70;0.80;;;23.80;46.00;;;;;;5039492;28;20160;-75
2022/07/05 08:24:05;;;;;;;1.95;0.75;;;24.00;43.90;;;;;;5042536;28;20133;-76
2022/07/05 08:26:32;;;;;;;3.45;0.80;;;23.80;44.50;;;;;;5038629;28;20029;-76
2022/07/05 08:28:59;;;;;;;3.75;0.80;;;23.70;45.00;;;;;;5045426;28;20036;-75
2022/07/05 08:31:26;;;;;;;2.95;0.88;;;23.60;45.00;;;;;;5043019;28;20029;-74
2022/07/05 08:33:52;;;;;;;2.50;0.68;;;23.40;45.10;;;;;;5039540;28;20051;-75
2022/07/05 08:36:17;;;;;;;1.60;0.55;;;23.30;45.10;;;;;;5041592;28;20408;-74
2022/07/05 08:38:49;;;;;;;4.78;0.80;;;23.20;45.50;;;;;;5039058;28;20167;-74
2022/07/05 08:41:26;;;;;;;1.73;0.70;;;23.10;45.80;;;;;;5037896;28;20052;-74
2022/07/05 08:43:53;;;;;;;4.03;0.93;;;23.00;45.90;;;;;;5035929;28;20040;-74
2022/07/05 08:46:19;;;;;;;3.45;0.73;;;22.90;46.50;;;;;;5039496;28;20553;-77
2022/07/05 08:48:49;;;;;;;3.03;0.70;;;22.90;46.60;;;;;;5040714;28;20021;-74
2022/07/05 08:51:23;;;;;;;3.03;0.77;;;22.80;46.60;;;;;;5036878;28;20044;-76
2022/07/05 08:53:53;;;;;;;6.18;0.70;;;22.70;47.00;;;;;;5043436;28;20297;-76
2022/07/05 08:56:20;;;;;;;2.72;0.60;;;22.90;47.80;;;;;;5043413;28;20068;-76
2022/07/05 08:58:46;;;;;;;2.95;0.80;;;22.60;47.30;;;;;;5037082;28;20029;-75
2022/07/05 09:01:16;;;;;;;2.75;0.75;;;22.70;47.80;;;;;;5044347;28;20028;-77
2022/07/05 09:03:45;;;;;;;4.28;0.70;;;22.80;47.00;;;;;;5039437;28;20033;-76
2022/07/05 09:06:13;;;;;;;4.13;0.95;;;22.90;44.70;;;;;;5043068;28;20032;-78
2022/07/05 09:08:40;;;;;;;3.28;0.73;;;23.30;43.90;;;;;;5045167;28;20028;-77
2022/07/05 09:11:16;;;;;;;2.90;0.75;;;23.20;45.50;;;;;;5042904;28;20089;-79
2022/07/05 09:13:47;;;;;;;3.88;0.90;;;23.80;44.10;;;;;;5035578;28;20112;-81
2022/07/05 09:16:13;;;;;;;2.38;0.60;;;22.20;45.20;;;;;;5039855;28;20029;-81
2022/07/05 09:18:48;;;;;;;6.88;0.80;;;24.90;41.90;;;;;;5039901;28;20025;-78
2022/07/05 09:21:25;;;;;;;2.83;0.70;;;25.40;39.90;;;;;;5043837;28;20083;-79
2022/07/05 09:24:06;;;;;;;5.07;0.80;;;27.50;44.10;;;;;;5036560;28;20083;-78
2022/07/05 09:26:40;;;;;;;;;;;26.00;36.90;;;;;;5036616;28;20028;-78
2022/07/05 09:29:12;;;;;;;3.08;0.70;;;28.10;31.90;;;;;;5036635;28;20004;-78
2022/07/05 09:31:40;;;;;;;2.78;0.80;;;28.20;31.40;;;;;;5044421;28;20154;-79
2022/07/05 09:34:06;;;;;;;2.85;0.77;;;;;;;;;;5030947;28;20052;-79
2022/07/05 09:37:03;;;;;;;3.90;0.70;;;29.20;30.50;;;;;;5037613;28;20060;-79
2022/07/05 09:39:29;;;;;;;3.75;0.70;;;30.00;34.80;;;;;;5038919;28;20029;-79
2022/07/05 09:42:17;;;;;;;2.25;0.60;;;29.60;31.00;;;;;;5040546;28;20047;-79
2022/07/05 09:44:47;;;;;;;2.10;0.70;;;28.20;32.90;;;;;;5039067;28;20029;-79
2022/07/05 09:47:16;;;;;;;2.67;0.68;;;27.00;41.80;;;;;;5035458;28;20029;-79
2022/07/05 09:49:47;;;;;;;4.72;0.70;;;27.00;34.20;;;;;;5041861;28;20064;-79
2022/07/05 09:52:45;;;;;;;3.13;0.80;;;26.90;36.00;;;;;;5034187;28;20017;-79
2022/07/05 09:55:11;;;;;;;4.03;0.80;;;;;;;;;;4996761;28;20409;-79
2022/07/05 09:57:42;;;;;;;1.58;0.60;;;28.40;31.90;;;;;;4984706;28;20037;-79
2022/07/05 10:00:11;;;;;;;2.83;0.70;;;28.30;32.80;;;;;;4991445;28;20042;-79
2022/07/05 10:02:44;;;;;;;3.38;0.80;;;27.70;34.30;;;;;;4993976;28;20057;-79
2022/07/05 10:05:18;;;;;;;1.50;0.70;;;29.50;31.10;;;;;;4989419;28;20635;-79
2022/07/05 10:07:47;;;;;;;3.38;0.70;;;31.50;28.70;;;;;;5003261;28;20133;-77
2022/07/05 10:10:18;;;;;;;2.47;0.67;;;29.90;28.70;;;;;;4994658;28;20038;-77
2022/07/05 10:12:46;;;;;;;2.05;0.70;;;30.20;33.10;;;;;;4993407;28;20505;-77
2022/07/05 10:15:15;;;;;;;1.92;0.80;;;30.20;29.70;;;;;;5001002;28;20489;-77
2022/07/05 10:17:53;;;;;;;3.15;0.70;;;31.80;28.30;;;;;;4994547;28;20111;-76
2022/07/05 10:20:28;;;;;;;3.30;0.80;;;35.30;26.00;;;;;;5001338;28;20553;-77
2022/07/05 10:22:55;;;;;;;2.80;0.70;;;34.40;24.70;;;;;;4998067;28;20111;-78
2022/07/05 10:25:23;;;;;;;3.85;0.90;;;35.70;23.60;;;;;;5006924;28;20065;-78
2022/07/05 10:27:53;;;;;;;5.13;0.75;;;36.50;22.40;;;;;;4995289;28;20505;-78
2022/07/05 10:30:22;;;;;;;3.70;0.80;;;36.10;23.80;;;;;;5004430;28;20037;-78
2022/07/05 10:32:48;;;;;;;4.00;0.70;;;33.80;23.50;;;;;;5037597;28;20045;-77
2022/07/05 10:35:19;;;;;;;2.72;0.80;;;34.60;24.90;;;;;;5037749;28;20962;-77
2022/07/05 10:37:46;;;;;;;3.00;0.70;;;33.50;25.50;;;;;;5050875;28;20029;-76
2022/07/05 10:40:13;;;;;;;1.65;0.60;;;34.20;24.70;;;;;;5049262;28;20024;-76
2022/07/05 10:43:10;;;;;;;3.17;0.60;;;32.80;26.40;;;;;;5040271;28;20035;-77
2022/07/05 10:45:39;;;;;;;3.17;0.80;;;34.50;23.70;;;;;;5038791;28;20059;-77
2022/07/05 10:48:28;;;;;;;4.10;0.70;;;34.50;23.80;;;;;;5043876;28;20103;-77
2022/07/05 10:51:16;;;;;;;4.07;0.60;;;34.40;23.70;;;;;;5044110;28;20029;-76
2022/07/05 10:53:41;;;;;;;2.33;0.60;;;33.10;25.10;;;;;;5035804;28;20021;-76
2022/07/05 10:56:07;;;;;;;2.53;0.70;;;;;;;;;;5040291;28;20032;-76
2022/07/05 10:58:36;;;;;;;1.67;0.60;;;33.80;24.00;;;;;;5033224;28;20392;-76
2022/07/05 11:01:20;;;;;;;2.17;0.70;;;35.90;23.00;;;;;;5044264;28;20036;-76
2022/07/05 11:04:01;;;;;;;2.95;0.80;;;37.40;21.30;;;;;;5035209;28;20060;-77
2022/07/05 11:06:29;;;;;;;3.13;0.80;;;37.90;19.60;;;;;;5043352;28;20503;-77
2022/07/05 11:08:59;;;;;;;3.78;0.60;;;38.90;19.50;;;;;;5039294;28;20075;-77
2022/07/05 11:11:36;;;;;;;2.75;0.50;;;39.40;19.30;;;;;;5045896;28;20032;-75
2022/07/05 11:14:04;;;;;;;2.15;0.60;;;39.80;19.30;;;;;;5041329;28;20036;-77
2022/07/05 11:16:32;;;;;;;1.67;0.60;;;40.40;18.30;;;;;;5035342;28;20029;-77
2022/07/05 11:19:12;;;;;;;1.92;0.60;;;40.80;17.40;;;;;;5042099;28;20500;-76
2022/07/05 11:21:40;;;;;;;2.25;0.50;;;41.10;17.00;;;;;;5035017;28;20022;-76
2022/07/05 11:24:23;;;;;;;3.17;0.60;;;41.40;17.00;;;;;;5032897;28;20033;-77
2022/07/05 11:26:52;;;;;;;1.67;0.47;;;41.70;16.70;;;;;;5041573;28;20079;-77
2022/07/05 11:29:45;;;;;;;3.70;0.52;;;41.80;16.60;;;;;;5045367;28;20064;-77
2022/07/05 11:32:16;;;;;;;5.00;0.80;;;42.10;16.30;;;;;;5039294;28;20044;-76
2022/07/05 11:34:43;;;;;;;3.00;0.60;;;42.10;16.60;;;;;;5046641;28;20071;-77
2022/07/05 11:37:24;;;;;;;3.80;0.52;;;41.90;16.20;;;;;;5042740;28;20095;-77
2022/07/05 11:40:10;;;;;;;2.55;0.60;;;41.90;16.60;;;;;;5038948;28;20041;-77
2022/07/05 11:42:56;;;;;;;1.90;0.90;;;42.10;16.70;;;;;;5044365;28;20021;-77
2022/07/05 11:45:22;;;;;;;3.97;0.70;;;42.40;16.40;;;;;;5041573;28;20043;-77
2022/07/05 11:47:48;;;;;;;4.20;0.60;;;42.60;16.20;;;;;;5039718;28;20018;-76
2022/07/05 11:50:14;;;;;;;2.28;0.52;;;42.80;16.10;;;;;;5035555;28;20037;-76
2022/07/05 11:52:41;;;;;;;2.97;0.60;;;42.90;15.30;;;;;;5039570;28;20040;-76
2022/07/05 11:55:10;;;;;;;2.25;0.50;;;42.60;15.60;;;;;;5044529;28;20124;-76
2022/07/05 11:57:37;;;;;;;1.67;0.50;;;42.30;15.90;;;;;;5040097;28;20095;-76
2022/07/05 12:00:05;;;;;;;2.67;0.60;;;42.10;15.80;;;;;;5040906;28;20116;-76
2022/07/05 12:02:31;;;;;;;2.15;0.45;;;42.20;15.90;;;;;;5044671;28;20108;-76
2022/07/05 12:04:57;;;;;;;4.68;0.70;;;42.40;16.10;;;;;;5039663;28;20104;-76
2022/07/05 12:07:34;;;;;;;3.13;0.52;;;42.60;15.90;;;;;;5048497;28;20021;-76
2022/07/05 12:12:47;;;;;;;3.50;0.57;;;42.80;15.60;;;;;;5035639;28;20087;-76
2022/07/05 12:15:14;;;;;;;30.92;1.50;;;42.80;15.50;;;;;;5038219;28;20059;-76
2022/07/05 12:17:42;;;;;;;2.03;0.60;;;42.90;15.80;;;;;;5035694;28;20024;-76
2022/07/05 12:20:11;;;;;;;3.42;0.60;;;43.00;15.20;;;;;;5039389;28;20025;-76
2022/07/05 12:22:41;;;;;;;1.85;0.43;;;40.90;14.90;;;;;;5044420;28;20742;-76
2022/07/05 12:25:11;;;;;;;2.53;0.73;;;40.30;15.70;;;;;;5042375;28;20037;-76
2022/07/05 12:27:39;;;;;;;5.20;0.45;;;42.20;15.70;;;;;;5045814;28;20028;-76
2022/07/05 12:30:09;;;;;;;2.33;0.60;;;42.20;15.60;;;;;;5042920;28;20043;-76
2022/07/05 12:32:52;;;;;;;3.95;0.70;;;42.10;15.90;;;;;;5036444;28;20642;-76
2022/07/05 12:35:31;;;;;;;2.38;0.50;;;41.80;15.50;;;;;;5045733;28;20033;-76
2022/07/05 12:38:02;;;;;;;3.92;0.75;;;42.20;15.50;;;;;;5034885;28;20036;-77
2022/07/05 12:40:28;;;;;;;11.73;0.73;;;42.30;15.60;;;;;;5036531;28;20047;-76
2022/07/05 12:43:02;;;;;;;2.80;0.50;;;45.20;17.50;;;;;;5037472;28;20025;-76
2022/07/05 12:45:28;;;;;;;3.42;0.60;;;42.40;15.70;;;;;;5036820;28;20041;-77
2022/07/05 12:47:56;;;;;;;3.83;0.52;;;42.50;15.60;;;;;;5041903;28;20439;-76
2022/07/05 12:50:24;;;;;;;2.53;0.60;;;42.30;15.70;;;;;;5037827;28;20112;-77
2022/07/05 12:58:56;;;;;;;4.15;0.68;;;42.00;15.90;;;;;;5042485;28;20044;-75
2022/07/05 13:01:25;;;;;;;3.63;0.90;;;41.70;16.00;;;;;;5048984;28;20032;-76
2022/07/05 13:04:11;;;;;;;2.58;0.63;;;41.60;16.20;;;;;;5035494;28;20458;-75
2022/07/05 13:06:54;;;;;;;1.45;0.57;;;41.30;16.20;;;;;;5044179;28;20748;-75
2022/07/05 13:09:32;;;;;;;3.03;0.60;;;40.80;17.00;;;;;;5043439;28;20412;-76
2022/07/05 13:12:11;;;;;;;4.20;0.70;;;40.30;17.60;;;;;;5046108;28;20488;-75
2022/07/05 13:14:46;;;;;;;3.05;0.70;;;39.80;17.80;;;;;;5037218;28;20061;-75
2022/07/05 13:17:13;;;;;;;3.28;0.60;;;39.00;19.10;;;;;;5035882;28;20041;-74